Time;durP1;ratioP1;P1;durP2;ratioP2;P2;SDS_P1;SDS_P2;PMS_P1;PMS_P2;Temp;Humidity;BMP_temperature;BMP_pressure;BME280_temperature;BME280_humidity;BME280_pressure;Samples;Min_cycle;Max_cycle;Signal;HPM_P1;HPM_P2
2023/05/07 00:02:02;;;;;;;1.00;0.90;;;14.30;99.90;;;;;;5040670;28;20049;-67
2023/05/07 00:04:28;;;;;;;0.47;0.47;;;14.30;99.90;;;;;;5034396;28;20051;-67
2023/05/07 00:06:55;;;;;;;0.30;0.30;;;14.30;99.90;;;;;;5037924;28;20053;-66
2023/05/07 00:09:21;;;;;;;0.00;0.00;;;14.40;99.90;;;;;;5044466;28;20033;-67
2023/05/07 00:11:46;;;;;;;1.15;0.90;;;14.30;99.90;;;;;;5037265;28;20429;-67
2023/05/07 00:14:12;;;;;;;0.50;0.50;;;14.30;99.90;;;;;;5029087;28;20476;-67
2023/05/07 00:16:37;;;;;;;1.20;0.95;;;14.30;99.90;;;;;;5030295;28;20401;-67
2023/05/07 00:19:03;;;;;;;0.15;0.10;;;14.30;99.90;;;;;;5039030;28;20367;-67
2023/05/07 00:21:30;;;;;;;0.00;0.00;;;14.30;99.90;;;;;;5034292;28;20083;-67
2023/05/07 00:23:55;;;;;;;1.92;1.75;;;14.30;99.90;;;;;;5044712;28;20052;-67
2023/05/07 00:26:22;;;;;;;0.30;0.30;;;14.30;99.90;;;;;;5047571;28;20041;-66
2023/05/07 00:28:47;;;;;;;3.13;2.17;;;14.30;99.90;;;;;;5036565;28;20123;-66
2023/05/07 00:31:13;;;;;;;0.13;0.13;;;14.30;99.90;;;;;;5044140;28;20131;-67
2023/05/07 00:33:38;;;;;;;0.15;0.15;;;14.30;99.90;;;;;;5038105;28;20664;-67
2023/05/07 00:36:04;;;;;;;0.30;0.30;;;14.30;99.90;;;;;;5033376;28;20040;-66
2023/05/07 00:38:31;;;;;;;1.33;0.93;;;14.20;99.90;;;;;;5040146;28;20457;-66
2023/05/07 00:40:56;;;;;;;0.63;0.63;;;14.20;99.90;;;;;;5036230;28;20099;-66
2023/05/07 00:43:22;;;;;;;1.85;0.52;;;14.20;99.90;;;;;;5040864;28;20059;-66
2023/05/07 00:45:47;;;;;;;1.10;0.63;;;14.20;99.90;;;;;;5035622;28;20076;-66
2023/05/07 00:48:13;;;;;;;2.50;0.95;;;14.20;99.90;;;;;;5045274;28;20125;-67
2023/05/07 00:50:39;;;;;;;0.82;0.80;;;14.10;99.90;;;;;;5044306;28;20043;-67
2023/05/07 00:53:06;;;;;;;0.70;0.47;;;14.20;99.90;;;;;;5039715;28;20057;-67
2023/05/07 00:55:32;;;;;;;1.30;1.20;;;14.20;99.90;;;;;;5029526;28;20811;-66
2023/05/07 00:57:58;;;;;;;0.20;0.20;;;14.10;99.90;;;;;;5030234;28;20037;-67
2023/05/07 01:00:25;;;;;;;0.40;0.40;;;14.10;99.90;;;;;;5034043;28;20047;-67
2023/05/07 01:02:50;;;;;;;0.25;0.20;;;14.10;99.90;;;;;;5039946;28;20048;-66
2023/05/07 01:05:18;;;;;;;0.00;0.00;;;14.00;99.90;;;;;;5031875;28;20462;-67
2023/05/07 01:07:44;;;;;;;0.25;0.25;;;14.10;99.90;;;;;;5039033;28;20562;-67
2023/05/07 01:10:11;;;;;;;0.13;0.13;;;14.10;99.90;;;;;;5034719;28;20110;-67
2023/05/07 01:12:38;;;;;;;0.00;0.00;;;14.10;99.90;;;;;;5032294;28;20099;-67
2023/05/07 01:15:05;;;;;;;0.43;0.30;;;14.00;99.90;;;;;;5038202;28;20041;-67
2023/05/07 01:17:37;;;;;;;0.98;0.98;;;14.00;99.90;;;;;;5030012;28;20045;-67
2023/05/07 01:20:05;;;;;;;0.30;0.30;;;14.10;99.90;;;;;;5039211;28;20069;-67
2023/05/07 01:22:38;;;;;;;0.75;0.63;;;14.00;99.90;;;;;;5040555;28;20048;-67
2023/05/07 01:25:07;;;;;;;0.10;0.10;;;14.00;99.90;;;;;;5037582;28;20126;-67
2023/05/07 01:27:35;;;;;;;0.82;0.57;;;14.00;99.90;;;;;;5043354;28;20045;-67
2023/05/07 01:30:00;;;;;;;0.60;0.60;;;14.10;99.90;;;;;;5029915;28;20049;-67
2023/05/07 01:32:37;;;;;;;2.08;0.65;;;14.10;99.90;;;;;;5029929;28;20406;-67
2023/05/07 01:35:06;;;;;;;0.32;0.32;;;14.00;99.90;;;;;;5030822;28;20037;-67
2023/05/07 01:37:32;;;;;;;3.05;1.02;;;14.00;99.90;;;;;;5035784;28;20100;-67
2023/05/07 01:39:58;;;;;;;0.57;0.45;;;13.90;99.90;;;;;;5047240;28;20113;-67
2023/05/07 01:42:24;;;;;;;1.98;0.98;;;13.90;99.90;;;;;;5036014;28;20041;-67
2023/05/07 01:44:49;;;;;;;0.52;0.52;;;13.90;99.90;;;;;;5041968;28;20041;-67
2023/05/07 01:47:16;;;;;;;0.10;0.10;;;13.90;99.90;;;;;;5028946;28;20049;-67
2023/05/07 01:49:42;;;;;;;1.27;0.90;;;14.00;99.90;;;;;;5045551;28;20037;-67
2023/05/07 01:52:10;;;;;;;5.00;1.65;;;13.90;99.90;;;;;;5034889;28;20107;-67
2023/05/07 01:54:35;;;;;;;0.32;0.32;;;13.90;99.90;;;;;;5038580;28;20053;-67
2023/05/07 01:57:01;;;;;;;0.13;0.13;;;13.80;99.90;;;;;;5038786;28;20119;-67
2023/05/07 01:59:27;;;;;;;1.15;1.00;;;13.80;99.90;;;;;;5044401;28;20072;-67
2023/05/07 02:01:52;;;;;;;0.40;0.40;;;13.90;99.90;;;;;;5041036;28;20045;-67
2023/05/07 02:04:18;;;;;;;0.98;0.77;;;13.90;99.90;;;;;;5035361;28;20124;-67
2023/05/07 02:06:43;;;;;;;0.35;0.35;;;13.80;99.90;;;;;;5037940;28;20081;-67
2023/05/07 02:09:09;;;;;;;8.50;1.30;;;13.90;99.90;;;;;;5036290;28;20048;-67
2023/05/07 02:11:35;;;;;;;0.45;0.35;;;13.80;99.90;;;;;;5036198;28;20052;-67
2023/05/07 02:14:00;;;;;;;0.63;0.63;;;13.80;99.90;;;;;;5030368;28;20053;-67
2023/05/07 02:16:26;;;;;;;0.28;0.28;;;13.80;99.90;;;;;;5039392;28;20554;-67
2023/05/07 02:18:51;;;;;;;2.55;1.58;;;13.80;99.90;;;;;;5044290;28;20110;-67
2023/05/07 02:21:17;;;;;;;0.10;0.10;;;13.80;99.90;;;;;;5041259;28;20080;-67
2023/05/07 02:23:43;;;;;;;1.20;1.17;;;13.70;99.90;;;;;;5042590;28;20056;-67
2023/05/07 02:26:08;;;;;;;0.80;0.80;;;13.80;99.90;;;;;;5048948;28;20051;-67
2023/05/07 02:28:37;;;;;;;1.23;0.60;;;13.80;99.90;;;;;;5042384;28;20041;-67
2023/05/07 02:31:03;;;;;;;0.43;0.43;;;13.70;99.90;;;;;;5037277;28;20042;-67
2023/05/07 02:33:29;;;;;;;0.55;0.55;;;13.70;99.90;;;;;;5033914;28;20501;-66
2023/05/07 02:35:55;;;;;;;0.70;0.70;;;13.60;99.90;;;;;;5039110;28;20064;-67
2023/05/07 02:38:20;;;;;;;1.00;0.80;;;13.60;99.90;;;;;;5039481;28;20044;-66
2023/05/07 02:40:46;;;;;;;2.42;0.70;;;13.60;99.90;;;;;;5032154;28;20057;-67
2023/05/07 02:43:12;;;;;;;0.30;0.30;;;13.60;99.90;;;;;;5054100;28;20135;-67
2023/05/07 02:45:37;;;;;;;0.45;0.45;;;13.50;99.90;;;;;;5035405;28;20052;-67
2023/05/07 02:48:03;;;;;;;0.32;0.32;;;13.60;99.90;;;;;;5045355;28;20053;-67
2023/05/07 02:50:29;;;;;;;2.47;1.55;;;13.50;99.90;;;;;;5052651;28;20584;-67
2023/05/07 02:52:55;;;;;;;1.58;1.48;;;13.60;99.90;;;;;;5037355;28;20140;-67
2023/05/07 02:55:21;;;;;;;1.48;1.27;;;13.60;99.90;;;;;;5040278;28;20096;-67
2023/05/07 02:57:46;;;;;;;0.73;0.73;;;13.50;99.90;;;;;;5030570;28;20152;-67
2023/05/07 03:00:17;;;;;;;1.15;1.08;;;13.50;99.90;;;;;;5044133;28;20041;-66
2023/05/07 03:02:43;;;;;;;3.50;2.35;;;13.40;99.90;;;;;;5043378;28;20046;-67
2023/05/07 03:05:09;;;;;;;1.05;0.98;;;13.40;99.90;;;;;;5039778;28;20049;-67
2023/05/07 03:07:36;;;;;;;0.70;0.70;;;13.40;99.90;;;;;;5043611;28;20114;-67
2023/05/07 03:10:02;;;;;;;1.83;0.80;;;13.30;99.90;;;;;;5038583;28;20103;-67
2023/05/07 03:12:27;;;;;;;0.52;0.52;;;13.30;99.90;;;;;;5033019;28;20045;-66
2023/05/07 03:14:53;;;;;;;0.57;0.57;;;13.30;99.90;;;;;;5039766;28;20104;-66
2023/05/07 03:17:20;;;;;;;0.68;0.68;;;13.30;99.90;;;;;;5035974;28;20088;-66
2023/05/07 03:19:45;;;;;;;0.50;0.50;;;13.30;99.90;;;;;;5040904;28;20049;-67
2023/05/07 03:22:11;;;;;;;0.98;0.98;;;13.30;99.90;;;;;;5030926;28;20051;-66
2023/05/07 03:24:36;;;;;;;1.13;1.02;;;13.30;99.90;;;;;;5037153;28;20048;-66
2023/05/07 03:27:02;;;;;;;2.92;1.75;;;13.20;99.90;;;;;;5032724;28;20129;-66
2023/05/07 03:29:28;;;;;;;0.85;0.85;;;13.20;99.90;;;;;;5041081;28;20068;-66
2023/05/07 03:31:54;;;;;;;1.75;1.65;;;13.20;99.90;;;;;;5045430;28;20040;-67
2023/05/07 03:34:21;;;;;;;0.77;0.77;;;13.20;99.90;;;;;;5028763;28;20465;-66
2023/05/07 03:36:48;;;;;;;0.77;0.77;;;13.20;99.90;;;;;;5050289;28;20056;-66
2023/05/07 03:39:14;;;;;;;0.90;0.90;;;13.20;99.90;;;;;;5035739;28;20037;-66
2023/05/07 03:41:40;;;;;;;1.67;0.80;;;13.10;99.90;;;;;;5037198;28;20095;-66
2023/05/07 03:44:06;;;;;;;1.67;0.70;;;13.10;99.90;;;;;;5033520;28;20051;-66
2023/05/07 03:46:32;;;;;;;1.77;1.42;;;13.10;99.90;;;;;;5033364;28;20025;-66
2023/05/07 03:48:58;;;;;;;0.38;0.38;;;13.00;99.90;;;;;;5028743;28;20050;-66
2023/05/07 03:51:24;;;;;;;1.45;0.77;;;13.00;99.90;;;;;;5030890;28;20049;-66
2023/05/07 03:53:52;;;;;;;2.78;1.77;;;13.00;99.90;;;;;;5039023;28;20102;-66
2023/05/07 03:56:18;;;;;;;0.57;0.40;;;12.90;99.90;;;;;;5058921;28;20044;-67
2023/05/07 03:58:44;;;;;;;0.30;0.30;;;12.90;99.90;;;;;;5037796;28;20041;-66
2023/05/07 04:01:09;;;;;;;4.80;1.20;;;13.00;99.90;;;;;;5035544;28;20064;-66
2023/05/07 04:03:35;;;;;;;2.92;1.13;;;12.90;99.90;;;;;;5029248;28;20088;-66
2023/05/07 04:06:00;;;;;;;0.65;0.40;;;12.90;99.90;;;;;;5030466;28;20052;-66
2023/05/07 04:08:26;;;;;;;0.63;0.63;;;12.90;99.90;;;;;;5035627;28;20048;-66
2023/05/07 04:10:58;;;;;;;0.25;0.25;;;12.90;99.90;;;;;;5031061;28;20045;-66
2023/05/07 04:13:24;;;;;;;1.15;1.02;;;12.80;99.90;;;;;;5033372;28;20041;-66
2023/05/07 04:15:50;;;;;;;8.02;1.42;;;12.90;99.90;;;;;;5032746;28;20736;-66
2023/05/07 04:18:16;;;;;;;1.05;0.70;;;12.90;99.90;;;;;;5037600;28;20401;-66
2023/05/07 04:20:41;;;;;;;0.80;0.80;;;12.80;99.90;;;;;;5036998;28;20056;-66
2023/05/07 04:23:07;;;;;;;1.35;1.25;;;12.80;99.90;;;;;;5038852;28;20149;-66
2023/05/07 04:25:33;;;;;;;0.82;0.60;;;12.80;99.90;;;;;;5042150;28;20052;-66
2023/05/07 04:27:59;;;;;;;1.02;0.93;;;12.80;99.90;;;;;;5032318;28;20379;-66
2023/05/07 04:30:25;;;;;;;0.28;0.28;;;12.80;99.90;;;;;;5041697;28;20531;-66
2023/05/07 04:32:51;;;;;;;1.30;0.50;;;12.70;99.90;;;;;;5045405;28;20183;-67
2023/05/07 04:35:17;;;;;;;7.40;1.65;;;12.70;99.90;;;;;;5040996;28;20034;-66
2023/05/07 04:37:43;;;;;;;0.63;0.60;;;12.70;99.90;;;;;;5030271;28;20488;-66
2023/05/07 04:40:09;;;;;;;1.85;1.52;;;12.70;99.90;;;;;;5030166;28;20041;-66
2023/05/07 04:42:35;;;;;;;0.95;0.95;;;12.70;99.90;;;;;;5036406;28;20052;-66
2023/05/07 04:45:01;;;;;;;0.63;0.63;;;12.70;99.90;;;;;;5033954;28;20044;-66
2023/05/07 04:47:27;;;;;;;0.73;0.73;;;12.70;99.90;;;;;;5033198;28;20033;-66
2023/05/07 04:49:53;;;;;;;2.08;1.63;;;12.70;99.90;;;;;;5028597;28;20045;-66
2023/05/07 04:52:18;;;;;;;1.95;1.50;;;12.70;99.90;;;;;;5036716;28;20093;-66
2023/05/07 04:54:44;;;;;;;3.35;2.60;;;12.60;99.90;;;;;;5036231;28;20048;-66
2023/05/07 04:57:09;;;;;;;0.38;0.38;;;12.60;99.90;;;;;;5037508;28;20051;-66
2023/05/07 04:59:35;;;;;;;0.30;0.30;;;12.70;99.90;;;;;;5036521;28;20040;-66
2023/05/07 05:02:01;;;;;;;0.20;0.20;;;12.70;99.90;;;;;;5035669;28;20049;-66
2023/05/07 05:04:26;;;;;;;0.40;0.40;;;12.70;99.90;;;;;;5033793;28;20045;-66
2023/05/07 05:06:52;;;;;;;3.55;0.95;;;12.60;99.90;;;;;;5029667;28;20040;-66
2023/05/07 05:09:18;;;;;;;1.25;1.15;;;12.60;99.90;;;;;;5032449;28;20052;-66
2023/05/07 05:11:44;;;;;;;0.85;0.85;;;12.60;99.90;;;;;;5039766;28;20049;-66
2023/05/07 05:14:09;;;;;;;3.50;1.60;;;12.60;99.90;;;;;;5030882;28;20050;-66
2023/05/07 05:16:35;;;;;;;1.00;0.90;;;12.60;99.90;;;;;;5041388;28;20045;-67
2023/05/07 05:19:01;;;;;;;1.90;1.75;;;12.60;99.90;;;;;;5031328;28;20056;-66
2023/05/07 05:21:27;;;;;;;0.85;0.85;;;12.60;99.90;;;;;;5029795;28;20555;-66
2023/05/07 05:23:52;;;;;;;0.30;0.30;;;12.60;99.90;;;;;;5031625;28;20045;-66
2023/05/07 05:26:18;;;;;;;0.77;0.77;;;12.60;99.90;;;;;;5028417;28;20045;-66
2023/05/07 05:28:44;;;;;;;0.93;0.93;;;12.60;99.90;;;;;;5029456;28;20053;-66
2023/05/07 05:31:10;;;;;;;0.75;0.75;;;12.60;99.90;;;;;;5036960;28;20120;-66
2023/05/07 05:33:35;;;;;;;0.70;0.68;;;12.60;99.90;;;;;;5045570;28;20124;-66
2023/05/07 05:36:01;;;;;;;1.58;1.48;;;12.60;99.90;;;;;;5051391;28;20420;-66
2023/05/07 05:38:27;;;;;;;2.10;1.92;;;12.60;99.90;;;;;;5052111;28;20132;-66
2023/05/07 05:40:52;;;;;;;0.47;0.47;;;12.60;99.90;;;;;;5040933;28;20092;-66
2023/05/07 05:43:18;;;;;;;6.50;1.98;;;12.60;99.90;;;;;;5040919;28;20032;-66
2023/05/07 05:45:44;;;;;;;1.33;1.23;;;12.60;99.90;;;;;;5047468;28;20044;-66
2023/05/07 05:48:09;;;;;;;1.55;1.33;;;12.60;99.90;;;;;;5039276;28;20627;-66
2023/05/07 05:50:38;;;;;;;7.22;4.28;;;12.60;99.90;;;;;;5041580;28;20037;-66
2023/05/07 05:53:03;;;;;;;0.85;0.85;;;12.60;99.90;;;;;;5039771;28;20049;-66
2023/05/07 05:55:29;;;;;;;1.92;1.77;;;12.60;99.90;;;;;;5042740;28;21343;-66
2023/05/07 05:57:56;;;;;;;1.50;1.42;;;12.60;99.90;;;;;;5047721;28;20048;-66
2023/05/07 06:00:22;;;;;;;5.53;1.85;;;12.60;99.90;;;;;;5038003;28;20068;-66
2023/05/07 06:02:48;;;;;;;1.75;1.65;;;12.70;99.90;;;;;;5034043;28;20976;-66
2023/05/07 06:05:14;;;;;;;0.52;0.52;;;12.70;99.90;;;;;;5030698;28;20049;-66
2023/05/07 06:07:40;;;;;;;0.38;0.38;;;12.70;99.90;;;;;;5040965;28;20046;-66
2023/05/07 06:10:06;;;;;;;1.48;1.38;;;12.70;99.90;;;;;;5052963;28;20048;-67
2023/05/07 06:12:32;;;;;;;2.42;1.70;;;12.60;99.90;;;;;;5039380;28;20038;-67
2023/05/07 06:14:57;;;;;;;1.05;0.98;;;12.70;99.90;;;;;;5035659;28;20118;-67
2023/05/07 06:17:23;;;;;;;2.53;2.38;;;12.70;99.90;;;;;;5039117;28;20041;-67
2023/05/07 06:19:48;;;;;;;1.48;1.38;;;12.70;99.90;;;;;;5031669;28;20087;-67
2023/05/07 06:22:14;;;;;;;1.20;1.15;;;12.80;99.90;;;;;;5042866;28;20060;-67
2023/05/07 06:24:39;;;;;;;1.48;1.42;;;12.80;99.90;;;;;;5038249;28;20048;-68
2023/05/07 06:27:05;;;;;;;1.52;1.23;;;12.70;99.90;;;;;;5045779;28;20045;-67
2023/05/07 06:29:32;;;;;;;0.65;0.65;;;12.80;99.90;;;;;;5038122;28;20087;-67
2023/05/07 06:32:06;;;;;;;3.85;1.17;;;12.80;99.90;;;;;;5037142;28;20047;-67
2023/05/07 06:34:32;;;;;;;0.95;0.95;;;12.90;99.90;;;;;;5032157;28;20095;-68
2023/05/07 06:36:58;;;;;;;2.90;1.73;;;12.90;99.90;;;;;;5040478;28;20041;-68
2023/05/07 06:39:24;;;;;;;3.10;1.08;;;13.00;99.90;;;;;;5041238;28;20049;-67
2023/05/07 06:41:49;;;;;;;1.27;1.23;;;13.00;99.90;;;;;;5040554;28;20048;-67
2023/05/07 06:44:15;;;;;;;0.93;0.70;;;13.10;99.90;;;;;;5038016;28;20837;-67
2023/05/07 06:46:41;;;;;;;0.10;0.10;;;13.10;99.90;;;;;;5047635;28;20448;-68
2023/05/07 06:49:06;;;;;;;0.28;0.28;;;13.10;99.90;;;;;;5047812;28;20048;-67
2023/05/07 06:51:32;;;;;;;1.30;1.27;;;13.10;99.90;;;;;;5039231;28;20053;-67
2023/05/07 06:53:58;;;;;;;1.38;1.27;;;13.20;99.90;;;;;;5034766;28;20103;-68
2023/05/07 06:56:24;;;;;;;1.17;1.17;;;13.20;99.90;;;;;;5041691;28;20053;-67
2023/05/07 06:58:49;;;;;;;0.77;0.77;;;13.30;99.90;;;;;;5049328;28;20045;-68
2023/05/07 07:01:15;;;;;;;1.30;1.25;;;13.30;99.90;;;;;;5034532;28;20040;-68
2023/05/07 07:03:41;;;;;;;1.20;1.10;;;13.30;99.90;;;;;;5042847;28;20041;-67
2023/05/07 07:06:06;;;;;;;0.52;0.50;;;13.30;99.90;;;;;;5029646;28;20179;-68
2023/05/07 07:08:32;;;;;;;2.05;1.10;;;13.40;99.90;;;;;;5031631;28;20107;-68
2023/05/07 07:10:58;;;;;;;4.20;1.08;;;13.40;99.90;;;;;;5041169;28;20033;-68
2023/05/07 07:13:23;;;;;;;0.32;0.32;;;13.30;99.90;;;;;;5046557;28;20123;-67
2023/05/07 07:15:49;;;;;;;1.40;1.30;;;13.30;99.90;;;;;;5047598;28;20048;-68
2023/05/07 07:18:15;;;;;;;1.50;1.40;;;13.40;99.90;;;;;;5034279;28;20084;-68
2023/05/07 07:20:40;;;;;;;0.55;0.55;;;13.50;99.90;;;;;;5033307;28;20033;-68
2023/05/07 07:23:06;;;;;;;0.98;0.88;;;13.50;99.90;;;;;;5044453;28;20041;-68
2023/05/07 07:25:32;;;;;;;1.65;1.55;;;13.50;99.90;;;;;;5030600;28;20079;-67
2023/05/07 07:27:57;;;;;;;0.47;0.45;;;13.50;99.90;;;;;;5035015;28;20131;-68
2023/05/07 07:30:23;;;;;;;1.50;1.40;;;13.60;99.90;;;;;;5046458;28;20105;-66
2023/05/07 07:32:48;;;;;;;1.90;0.85;;;13.60;99.90;;;;;;5048643;28;20132;-66
2023/05/07 07:35:14;;;;;;;3.50;1.50;;;13.50;99.90;;;;;;5039745;28;20140;-67
2023/05/07 07:37:40;;;;;;;14.57;3.50;;;13.60;99.90;;;;;;5036654;28;20810;-66
2023/05/07 07:40:06;;;;;;;4.22;2.65;;;13.60;99.90;;;;;;5034216;28;20045;-66
2023/05/07 07:42:31;;;;;;;1.02;1.02;;;13.60;99.90;;;;;;5041653;28;20052;-67
2023/05/07 07:44:57;;;;;;;0.90;0.50;;;13.70;99.90;;;;;;5042564;28;20044;-67
2023/05/07 07:47:23;;;;;;;0.80;0.80;;;13.70;99.90;;;;;;5039468;28;20068;-67
2023/05/07 07:49:48;;;;;;;0.77;0.65;;;13.80;99.90;;;;;;5037501;28;20132;-67
2023/05/07 07:52:14;;;;;;;0.68;0.68;;;13.80;99.90;;;;;;5029905;28;20484;-67
2023/05/07 07:54:39;;;;;;;0.68;0.68;;;13.80;99.90;;;;;;5036027;28;20081;-67
2023/05/07 07:57:05;;;;;;;0.52;0.52;;;13.80;99.90;;;;;;5040961;28;20045;-67
2023/05/07 07:59:31;;;;;;;1.88;1.73;;;13.80;99.90;;;;;;5036921;28;20061;-67
2023/05/07 08:01:56;;;;;;;1.13;1.02;;;13.80;99.90;;;;;;5041686;28;20065;-67
2023/05/07 08:04:22;;;;;;;0.80;0.57;;;14.00;99.90;;;;;;5046010;28;20037;-67
2023/05/07 08:06:48;;;;;;;0.30;0.30;;;14.00;99.90;;;;;;5042400;28;20436;-67
2023/05/07 08:09:14;;;;;;;1.08;0.63;;;14.10;99.90;;;;;;5037203;28;20049;-67
2023/05/07 08:11:40;;;;;;;0.57;0.57;;;14.20;99.90;;;;;;5039809;28;20044;-67
2023/05/07 08:14:05;;;;;;;0.45;0.45;;;14.20;99.90;;;;;;5047214;28;20052;-67
2023/05/07 08:16:31;;;;;;;1.50;1.40;;;14.20;99.90;;;;;;5045808;28;20409;-66
2023/05/07 08:18:57;;;;;;;0.70;0.68;;;14.20;99.90;;;;;;5033577;28;20041;-67
2023/05/07 08:21:23;;;;;;;1.17;1.13;;;14.30;99.90;;;;;;5047077;28;20135;-67
2023/05/07 08:23:48;;;;;;;0.10;0.10;;;14.30;99.90;;;;;;5041791;28;20076;-67
2023/05/07 08:26:14;;;;;;;0.52;0.52;;;14.40;99.90;;;;;;5036275;28;20426;-67
2023/05/07 08:28:40;;;;;;;0.25;0.20;;;14.40;99.90;;;;;;5034827;28;20069;-67
2023/05/07 08:31:05;;;;;;;0.82;0.82;;;14.40;99.90;;;;;;5037905;28;20051;-67
2023/05/07 08:33:31;;;;;;;1.27;1.05;;;14.50;99.90;;;;;;5046119;28;20536;-67
2023/05/07 08:35:57;;;;;;;9.45;2.92;;;14.60;99.90;;;;;;5041850;28;20133;-67
2023/05/07 08:38:22;;;;;;;0.45;0.45;;;14.80;99.90;;;;;;5045593;28;20407;-67
2023/05/07 08:40:48;;;;;;;1.52;1.00;;;14.90;99.90;;;;;;5061809;28;20044;-67
2023/05/07 08:43:14;;;;;;;6.22;1.15;;;14.80;99.90;;;;;;5042337;28;20037;-67
2023/05/07 08:45:40;;;;;;;0.88;0.88;;;14.80;99.90;;;;;;5035618;28;20077;-67
2023/05/07 08:48:13;;;;;;;2.50;1.13;;;15.00;99.90;;;;;;5050725;28;20083;-67
2023/05/07 08:50:39;;;;;;;0.55;0.55;;;15.10;99.90;;;;;;5030242;28;20512;-67
2023/05/07 08:53:05;;;;;;;1.33;0.55;;;15.10;99.90;;;;;;5032303;28;20049;-67
2023/05/07 08:55:31;;;;;;;0.52;0.52;;;15.30;99.90;;;;;;5029358;28;20052;-67
2023/05/07 08:57:57;;;;;;;0.30;0.30;;;15.40;99.90;;;;;;5030421;28;20041;-67
2023/05/07 09:00:22;;;;;;;1.15;0.98;;;15.90;99.90;;;;;;5031410;28;20128;-67
2023/05/07 09:02:48;;;;;;;0.85;0.85;;;16.30;99.90;;;;;;5034182;28;20386;-67
2023/05/07 09:05:13;;;;;;;2.10;1.23;;;16.50;99.90;;;;;;5037575;28;20076;-68
2023/05/07 09:07:39;;;;;;;0.85;0.85;;;16.90;99.90;;;;;;5035407;28;20052;-67
2023/05/07 09:10:06;;;;;;;0.65;0.65;;;16.80;99.90;;;;;;5036951;28;20435;-67
2023/05/07 09:12:31;;;;;;;3.70;2.35;;;16.90;99.90;;;;;;5032815;28;20041;-68
2023/05/07 09:14:59;;;;;;;1.08;0.88;;;16.80;99.90;;;;;;5045055;28;20048;-67
2023/05/07 09:17:24;;;;;;;0.25;0.25;;;16.70;99.90;;;;;;5043395;28;20120;-67
2023/05/07 09:19:50;;;;;;;0.60;0.57;;;16.60;99.90;;;;;;5053344;28;20541;-67
2023/05/07 09:22:16;;;;;;;1.35;1.25;;;16.50;99.90;;;;;;5040899;28;20374;-67
2023/05/07 09:24:50;;;;;;;1.50;1.40;;;16.40;99.90;;;;;;5036465;28;20103;-67
2023/05/07 09:27:17;;;;;;;0.98;0.98;;;16.30;99.90;;;;;;5031978;28;20065;-68
2023/05/07 09:29:44;;;;;;;6.80;1.75;;;16.40;99.90;;;;;;5036374;28;20077;-67
2023/05/07 09:32:09;;;;;;;0.77;0.77;;;16.40;99.90;;;;;;5053688;28;20054;-68
2023/05/07 09:34:36;;;;;;;0.85;0.85;;;16.20;99.90;;;;;;5026219;28;20390;-67
2023/05/07 09:37:02;;;;;;;2.25;2.05;;;16.20;99.90;;;;;;5039434;28;20055;-67
2023/05/07 09:39:42;;;;;;;0.75;0.75;;;16.20;99.90;;;;;;5026182;28;20052;-68
2023/05/07 09:42:07;;;;;;;24.33;5.22;;;16.30;99.90;;;;;;5027228;28;20077;-68
2023/05/07 09:44:34;;;;;;;2.13;0.95;;;16.30;99.90;;;;;;5041300;28;20075;-68
2023/05/07 09:47:00;;;;;;;0.43;0.43;;;16.40;99.90;;;;;;5035728;28;20045;-68
2023/05/07 09:49:32;;;;;;;1.77;1.65;;;16.40;99.90;;;;;;5041940;28;20504;-68
2023/05/07 09:52:00;;;;;;;1.40;1.30;;;16.50;99.90;;;;;;5038471;28;20081;-68
2023/05/07 09:54:27;;;;;;;0.52;0.52;;;16.50;99.90;;;;;;5034207;28;20053;-68
2023/05/07 09:56:53;;;;;;;0.82;0.77;;;16.60;99.90;;;;;;5026950;28;20042;-68
2023/05/07 09:59:19;;;;;;;0.40;0.40;;;16.60;99.90;;;;;;5030987;28;20103;-67
2023/05/07 10:01:45;;;;;;;1.23;0.65;;;16.60;99.90;;;;;;5030983;28;20045;-68
2023/05/07 10:04:12;;;;;;;0.90;0.90;;;16.70;99.90;;;;;;5042183;28;20529;-68
2023/05/07 10:06:38;;;;;;;1.67;1.33;;;17.00;99.90;;;;;;5044729;28;20041;-68
2023/05/07 10:09:07;;;;;;;0.20;0.20;;;17.00;99.90;;;;;;5039430;28;20029;-68
2023/05/07 10:11:35;;;;;;;2.15;1.33;;;17.00;99.90;;;;;;5026970;28;20087;-68
2023/05/07 10:14:02;;;;;;;2.08;1.00;;;17.10;99.90;;;;;;5029796;28;20101;-67
2023/05/07 10:16:36;;;;;;;1.38;1.27;;;17.30;99.90;;;;;;5044806;28;20061;-67
2023/05/07 10:19:06;;;;;;;3.10;1.25;;;17.60;99.90;;;;;;5043997;28;20041;-68
2023/05/07 10:21:38;;;;;;;2.45;1.02;;;18.20;99.90;;;;;;5031311;28;20516;-68
2023/05/07 10:24:13;;;;;;;4.50;0.93;;;18.40;99.90;;;;;;5032529;28;20098;-68
2023/05/07 10:26:42;;;;;;;4.72;1.92;;;18.50;99.90;;;;;;5037267;28;20049;-68
2023/05/07 10:29:15;;;;;;;2.58;1.02;;;18.70;99.90;;;;;;5045223;28;20476;-68
2023/05/07 10:31:56;;;;;;;0.73;0.73;;;18.80;99.90;;;;;;5031599;28;20045;-68
2023/05/07 10:34:27;;;;;;;0.50;0.50;;;18.90;99.90;;;;;;5030645;28;20049;-68
2023/05/07 10:36:55;;;;;;;2.30;0.60;;;19.10;99.90;;;;;;5039150;28;20072;-68
2023/05/07 10:39:21;;;;;;;1.20;1.17;;;19.10;99.90;;;;;;5038305;28;20544;-68
2023/05/07 10:41:48;;;;;;;2.40;1.13;;;19.10;99.90;;;;;;5049308;28;20135;-68
2023/05/07 10:44:28;;;;;;;1.05;1.02;;;18.90;99.90;;;;;;5035287;28;20041;-68
2023/05/07 10:47:04;;;;;;;1.30;0.90;;;19.00;99.90;;;;;;5044209;28;20115;-68
2023/05/07 10:49:30;;;;;;;1.00;0.82;;;19.00;99.90;;;;;;5045451;28;20130;-68
2023/05/07 10:52:31;;;;;;;2.38;2.13;;;18.90;99.90;;;;;;5032625;28;20088;-68
2023/05/07 10:55:17;;;;;;;0.50;0.50;;;19.00;99.90;;;;;;4990094;28;20050;-68
2023/05/07 10:57:43;;;;;;;3.72;1.92;;;19.10;99.90;;;;;;5029808;28;20504;-68
2023/05/07 11:00:23;;;;;;;2.03;1.15;;;19.20;99.90;;;;;;5033131;28;20103;-68
2023/05/07 11:03:00;;;;;;;1.55;1.45;;;19.10;99.90;;;;;;5030153;28;20045;-68
2023/05/07 11:05:31;;;;;;;0.63;0.63;;;19.20;99.90;;;;;;5036585;28;20040;-67
2023/05/07 11:08:04;;;;;;;0.77;0.77;;;19.10;99.90;;;;;;5045926;28;20045;-67
2023/05/07 11:10:53;;;;;;;4.35;1.38;;;19.40;99.90;;;;;;5037231;28;20049;-67
2023/05/07 11:13:39;;;;;;;0.05;0.05;;;19.40;99.90;;;;;;5039790;28;20047;-67
2023/05/07 11:16:16;;;;;;;1.02;1.00;;;19.50;99.90;;;;;;5042309;28;20121;-68
2023/05/07 11:18:52;;;;;;;0.93;0.93;;;19.70;99.90;;;;;;5033366;28;20053;-67
2023/05/07 11:21:40;;;;;;;1.00;1.00;;;19.70;99.90;;;;;;5032607;28;20049;-67
2023/05/07 11:24:07;;;;;;;4.75;1.30;;;19.70;99.90;;;;;;5044891;28;20029;-67
2023/05/07 11:26:48;;;;;;;4.05;1.25;;;19.80;99.90;;;;;;5036805;28;20076;-67
2023/05/07 11:29:19;;;;;;;1.95;1.65;;;19.90;99.90;;;;;;5039171;28;20080;-68
2023/05/07 11:31:52;;;;;;;0.43;0.35;;;20.10;99.90;;;;;;5030616;28;20049;-68
2023/05/07 11:34:25;;;;;;;0.30;0.30;;;20.30;99.90;;;;;;5048756;28;20041;-68
2023/05/07 11:36:52;;;;;;;4.18;1.45;;;20.60;99.90;;;;;;5036168;28;20107;-68
2023/05/07 11:39:28;;;;;;;2.33;1.50;;;20.60;99.90;;;;;;5045805;28;20045;-68
2023/05/07 11:41:54;;;;;;;1.38;1.27;;;20.60;99.90;;;;;;5044544;28;20131;-68
2023/05/07 11:44:19;;;;;;;0.60;0.60;;;20.70;99.90;;;;;;5035441;28;20045;-68
2023/05/07 11:46:45;;;;;;;0.38;0.38;;;20.70;99.90;;;;;;5033404;28;20139;-70
2023/05/07 11:49:11;;;;;;;1.35;1.25;;;20.90;99.90;;;;;;5036949;28;20042;-67
2023/05/07 11:51:38;;;;;;;0.63;0.63;;;20.80;99.90;;;;;;5037392;28;20052;-68
2023/05/07 11:54:08;;;;;;;1.75;1.13;;;20.80;99.90;;;;;;5038750;28;20049;-68
2023/05/07 11:56:35;;;;;;;0.35;0.35;;;20.80;99.90;;;;;;5036034;28;20080;-68
2023/05/07 11:59:01;;;;;;;3.30;1.58;;;21.30;99.90;;;;;;5040159;28;20451;-68
2023/05/07 12:01:26;;;;;;;1.10;1.00;;;21.20;99.90;;;;;;5045758;28;20041;-69
2023/05/07 12:03:52;;;;;;;1.73;1.50;;;21.40;99.90;;;;;;5031980;28;20071;-69
2023/05/07 12:06:18;;;;;;;3.83;0.98;;;21.50;99.90;;;;;;5046101;28;20065;-68
2023/05/07 12:08:45;;;;;;;2.30;1.13;;;21.50;99.90;;;;;;5046909;28;20052;-68
2023/05/07 12:11:24;;;;;;;1.98;1.85;;;21.80;99.90;;;;;;5030993;28;20044;-69
2023/05/07 12:13:50;;;;;;;5.45;1.65;;;21.70;99.90;;;;;;5039390;28;20103;-69
2023/05/07 12:16:16;;;;;;;2.30;1.52;;;21.90;99.90;;;;;;5046599;28;20032;-68
2023/05/07 12:18:42;;;;;;;1.02;0.93;;;21.80;99.90;;;;;;5035993;28;20044;-68
2023/05/07 12:21:08;;;;;;;1.00;0.93;;;22.10;99.90;;;;;;5042354;28;20063;-68
2023/05/07 12:23:36;;;;;;;0.70;0.57;;;22.40;99.90;;;;;;5038351;28;20044;-69
2023/05/07 12:26:01;;;;;;;0.63;0.63;;;22.70;99.90;;;;;;5032709;28;20044;-68
2023/05/07 12:28:27;;;;;;;3.30;1.38;;;22.20;99.90;;;;;;5028608;28;21246;-68
2023/05/07 12:30:53;;;;;;;0.63;0.63;;;22.30;99.90;;;;;;5028726;28;20412;-68
2023/05/07 12:33:24;;;;;;;1.38;1.25;;;22.60;99.90;;;;;;5028087;28;20045;-69
2023/05/07 12:35:50;;;;;;;2.15;1.05;;;22.60;99.90;;;;;;5028577;28;20053;-69
2023/05/07 12:38:17;;;;;;;0.52;0.52;;;22.60;99.90;;;;;;5032553;28;20045;-68
2023/05/07 12:40:50;;;;;;;0.45;0.40;;;22.50;99.90;;;;;;5027098;28;20091;-69
2023/05/07 12:43:19;;;;;;;;;;;22.80;99.90;;;;;;5032707;28;20049;-68
2023/05/07 12:45:48;;;;;;;0.55;0.55;;;22.90;99.90;;;;;;5027994;28;19979;-68
2023/05/07 12:48:13;;;;;;;3.38;0.75;;;23.00;99.90;;;;;;5031313;28;20056;-68